Walmer, South Africa
Current Conditions -  °F | °C
As of 1:00 AM on Friday 28 Nov 2014 (Local Time) from FAPE Reporting Station
Clear Clear  
Wind Chill: 64°   Ceiling: Unl
Heat Index: 64°   Visibility: 6mi
Dew Point: 55°   Wind: 21mph
Humidity: 73%   Direction: 260°W
Pressure: 29.91"   Gusts: NA
Location:  33.98°S, 25.58°E
Report Text: FAPE 272300Z 26018KT CAVOK 18/13 Q1013 NOSIG
Loading
Personal Weather Stations






























Interactive Weather Map New forecast layout! Learn more

10-Day Weather Forecast

Advertisements
Track Severe Weather on mobile